Time;durP1;ratioP1;P1;durP2;ratioP2;P2;SDS_P1;SDS_P2;PMS_P1;PMS_P2;Temp;Humidity;BMP_temperature;BMP_pressure;BME280_temperature;BME280_humidity;BME280_pressure;Samples;Min_cycle;Max_cycle;Signal;HPM_P1;HPM_P2
2021/03/06 00:00:40;;;;;;;14.25;10.80;;;-3.20;99.90;;;;;;4939617;29;20211;-90
2021/03/06 00:03:07;;;;;;;15.25;11.18;;;-3.20;99.90;;;;;;4939954;29;20199;-90
2021/03/06 00:05:33;;;;;;;11.27;9.48;;;-3.30;99.90;;;;;;4957671;29;20191;-90
2021/03/06 00:08:00;;;;;;;10.63;9.52;;;-3.30;99.90;;;;;;4953331;28;20283;-91
2021/03/06 00:10:26;;;;;;;12.13;9.80;;;-3.30;99.90;;;;;;4943713;29;20212;-92
2021/03/06 00:12:54;;;;;;;11.75;10.27;;;-3.40;99.90;;;;;;4942764;29;20216;-91
2021/03/06 00:15:23;;;;;;;10.93;9.30;;;-3.40;99.90;;;;;;4943475;29;20244;-90
2021/03/06 00:17:50;;;;;;;12.52;9.93;;;-3.40;99.90;;;;;;4943461;29;20212;-91
2021/03/06 00:20:17;;;;;;;10.35;8.98;;;-3.50;99.90;;;;;;4943568;29;20204;-90
2021/03/06 00:22:44;;;;;;;13.45;10.10;;;-3.50;99.90;;;;;;4943462;29;20195;-91
2021/03/06 00:25:13;;;;;;;10.02;8.90;;;-3.50;99.90;;;;;;4944010;29;20260;-91
2021/03/06 00:27:40;;;;;;;13.15;10.50;;;-3.50;99.90;;;;;;4943207;29;20663;-91
2021/03/06 00:30:10;;;;;;;15.75;10.02;;;-3.50;99.90;;;;;;4943766;29;20275;-89
2021/03/06 00:32:37;;;;;;;13.55;10.57;;;-3.50;99.90;;;;;;4942504;29;20255;-90
2021/03/06 00:35:04;;;;;;;12.75;9.80;;;-3.50;99.90;;;;;;4942950;29;20291;-91
2021/03/06 00:37:31;;;;;;;12.95;10.73;;;-3.50;99.90;;;;;;4943353;29;20227;-91
2021/03/06 00:39:58;;;;;;;11.68;10.48;;;-3.60;99.90;;;;;;4943013;29;20189;-92
2021/03/06 00:42:24;;;;;;;14.70;11.23;;;-3.60;99.90;;;;;;4943280;29;20652;-90
2021/03/06 00:44:50;;;;;;;16.10;10.07;;;-3.50;99.90;;;;;;4943412;29;20220;-91
2021/03/06 00:47:18;;;;;;;14.50;11.02;;;-3.50;99.90;;;;;;4943389;29;20316;-91
2021/03/06 00:49:44;;;;;;;12.45;10.30;;;-3.50;99.90;;;;;;4943545;29;20220;-91
2021/03/06 00:52:12;;;;;;;12.77;11.32;;;-3.50;99.90;;;;;;4926379;29;20192;-90
2021/03/06 00:54:38;;;;;;;14.05;10.80;;;-3.50;99.90;;;;;;4944736;29;20620;-90
2021/03/06 00:57:05;;;;;;;13.25;10.20;;;-3.50;99.90;;;;;;4944065;29;20248;-90
2021/03/06 00:59:32;;;;;;;13.93;10.95;;;-3.60;99.90;;;;;;4943664;29;20265;-90
2021/03/06 01:01:58;;;;;;;16.20;10.93;;;-3.60;99.90;;;;;;4944508;29;20200;-91
2021/03/06 01:04:26;;;;;;;13.23;9.27;;;-3.60;99.90;;;;;;4947175;29;20283;-91
2021/03/06 01:06:53;;;;;;;11.75;9.30;;;-3.60;99.90;;;;;;4961640;29;20196;-90
2021/03/06 01:09:19;;;;;;;12.38;10.23;;;-3.70;99.90;;;;;;4938261;29;20223;-90
2021/03/06 01:11:46;;;;;;;11.98;10.60;;;-3.60;99.90;;;;;;4934202;29;20309;-91
2021/03/06 01:14:12;;;;;;;13.35;11.43;;;-3.60;99.90;;;;;;4954973;29;20219;-91
2021/03/06 01:16:39;;;;;;;12.43;11.02;;;-3.60;99.90;;;;;;4959042;29;20200;-91
2021/03/06 01:19:06;;;;;;;14.80;10.00;;;-3.60;99.90;;;;;;4949131;29;20260;-91
2021/03/06 01:21:34;;;;;;;11.50;9.55;;;-3.60;99.90;;;;;;4946966;29;20589;-92
2021/03/06 01:24:01;;;;;;;13.48;10.55;;;-3.60;99.90;;;;;;4945607;29;20200;-91
2021/03/06 01:26:28;;;;;;;13.38;12.07;;;-3.60;99.90;;;;;;4957238;29;20195;-91
2021/03/06 01:28:54;;;;;;;14.77;10.98;;;-3.60;99.90;;;;;;4950508;28;20195;-91
2021/03/06 01:31:21;;;;;;;12.32;9.75;;;-3.50;99.90;;;;;;4945418;29;20210;-91
2021/03/06 01:33:48;;;;;;;11.63;9.57;;;-3.60;99.90;;;;;;4945512;29;20311;-91
2021/03/06 01:36:15;;;;;;;16.77;11.93;;;-3.60;99.90;;;;;;4945599;29;20227;-91
2021/03/06 01:38:42;;;;;;;14.48;10.57;;;-3.60;99.90;;;;;;4946858;29;20285;-92
2021/03/06 01:41:10;;;;;;;11.63;10.43;;;-3.60;99.90;;;;;;4946036;29;20197;-92
2021/03/06 01:43:36;;;;;;;11.43;9.45;;;-3.50;99.90;;;;;;4947543;29;20219;-91
2021/03/06 01:46:04;;;;;;;11.90;10.60;;;-3.60;99.90;;;;;;4947449;29;20181;-92
2021/03/06 01:48:31;;;;;;;15.88;10.88;;;-3.60;99.90;;;;;;4948834;29;20192;-91
2021/03/06 01:50:58;;;;;;;12.48;10.63;;;-3.60;99.90;;;;;;4947994;29;20640;-91
2021/03/06 01:53:25;;;;;;;15.63;10.95;;;-3.60;99.90;;;;;;4947824;29;20224;-90
2021/03/06 01:55:53;;;;;;;12.73;9.40;;;-3.70;99.90;;;;;;4947073;29;20185;-91
2021/03/06 01:58:22;;;;;;;15.93;10.60;;;-3.80;99.90;;;;;;4946748;29;20184;-92
2021/03/06 02:00:49;;;;;;;12.45;9.70;;;-3.80;99.90;;;;;;4947438;29;20188;-90
2021/03/06 02:03:16;;;;;;;11.00;9.90;;;-3.80;99.90;;;;;;4933716;29;20264;-92
2021/03/06 02:05:44;;;;;;;15.65;10.68;;;-3.80;99.90;;;;;;4951349;29;20192;-90
2021/03/06 02:08:12;;;;;;;12.07;9.27;;;-3.80;99.90;;;;;;4933608;29;20215;-90
2021/03/06 02:10:42;;;;;;;15.98;10.85;;;-3.80;99.90;;;;;;4947793;29;20204;-92
2021/03/06 02:13:26;;;;;;;11.80;9.82;;;-3.90;99.90;;;;;;4948175;29;20263;-91
2021/03/06 02:16:06;;;;;;;13.63;10.63;;;-3.90;99.90;;;;;;4948038;29;20315;-91
2021/03/06 02:18:40;;;;;;;12.00;9.35;;;-4.00;99.90;;;;;;4947720;29;20184;-91
2021/03/06 02:21:29;;;;;;;12.35;10.43;;;-4.00;99.90;;;;;;4947255;29;20192;-92
2021/03/06 02:24:23;;;;;;;15.20;10.23;;;-4.00;99.90;;;;;;4947973;29;20644;-91
2021/03/06 02:27:13;;;;;;;12.70;10.65;;;-4.10;99.90;;;;;;4946552;29;20192;-93
2021/03/06 02:29:50;;;;;;;13.10;11.80;;;-4.10;99.90;;;;;;4949864;29;20192;-91
2021/03/06 02:32:21;;;;;;;16.00;11.80;;;-4.10;99.90;;;;;;4956280;28;20180;-91
2021/03/06 02:35:00;;;;;;;16.30;12.88;;;-4.10;99.90;;;;;;4961174;28;20180;-91
2021/03/06 02:37:30;;;;;;;13.07;11.82;;;-4.20;99.90;;;;;;4959133;28;20200;-92
2021/03/06 02:39:58;;;;;;;12.20;10.90;;;-4.20;99.90;;;;;;4950810;29;20188;-92
2021/03/06 02:42:26;;;;;;;16.27;12.63;;;-4.20;99.90;;;;;;4949241;29;20196;-91
2021/03/06 02:44:57;;;;;;;13.77;11.02;;;-4.20;99.90;;;;;;4949129;29;20247;-92
2021/03/06 02:47:28;;;;;;;15.27;12.45;;;-4.20;99.90;;;;;;4951573;29;20177;-92
2021/03/06 02:49:59;;;;;;;13.90;11.95;;;-4.20;99.90;;;;;;4956883;29;20207;-91
2021/03/06 02:52:27;;;;;;;18.77;11.93;;;-4.20;99.90;;;;;;4952292;29;20610;-91
2021/03/06 02:54:55;;;;;;;12.93;11.32;;;-4.20;99.90;;;;;;4932698;29;20216;-91
2021/03/06 02:57:40;;;;;;;20.27;13.43;;;-4.20;99.90;;;;;;4960696;28;20312;-92
2021/03/06 03:00:20;;;;;;;13.98;11.60;;;-4.20;99.90;;;;;;4947492;29;20204;-92
2021/03/06 03:02:56;;;;;;;12.98;10.93;;;-4.20;99.90;;;;;;4946932;29;20207;-91
2021/03/06 03:05:30;;;;;;;12.57;11.13;;;-4.20;99.90;;;;;;4946886;29;20191;-92
2021/03/06 03:08:04;;;;;;;15.63;10.00;;;-4.20;99.90;;;;;;4947716;29;20231;-91
2021/03/06 03:10:35;;;;;;;15.00;12.23;;;-4.30;99.90;;;;;;4946891;29;20191;-92
2021/03/06 03:13:10;;;;;;;12.02;10.27;;;-4.30;99.90;;;;;;4946737;29;20227;-91
2021/03/06 03:15:46;;;;;;;12.25;10.75;;;-4.30;99.90;;;;;;4947286;29;20247;-92
2021/03/06 03:18:21;;;;;;;13.23;10.80;;;-4.30;99.90;;;;;;4946914;29;20200;-91
2021/03/06 03:20:52;;;;;;;12.30;10.95;;;-4.30;99.90;;;;;;4928092;29;20196;-91
2021/03/06 03:23:24;;;;;;;14.52;10.70;;;-4.30;99.90;;;;;;4929015;29;20201;-91
2021/03/06 03:25:52;;;;;;;14.30;10.68;;;-4.30;99.90;;;;;;4955903;29;20272;-93
2021/03/06 03:28:19;;;;;;;12.88;10.50;;;-4.40;99.90;;;;;;4963337;28;20195;-92
2021/03/06 03:30:54;;;;;;;11.82;10.05;;;-4.40;99.90;;;;;;4964611;28;20227;-92
2021/03/06 03:33:21;;;;;;;10.77;9.27;;;-4.40;99.90;;;;;;4958320;29;20282;-92
2021/03/06 03:35:48;;;;;;;11.05;9.07;;;-4.40;99.90;;;;;;4946319;29;20207;-92
2021/03/06 03:38:23;;;;;;;13.30;9.93;;;-4.30;99.90;;;;;;4947679;29;20192;-92
2021/03/06 03:40:51;;;;;;;10.38;8.40;;;-4.40;99.90;;;;;;4951013;29;20190;-92
2021/03/06 03:43:19;;;;;;;12.35;9.73;;;-4.40;99.90;;;;;;4955071;28;20185;-93
2021/03/06 03:45:51;;;;;;;11.73;8.85;;;-4.30;99.90;;;;;;4961539;29;20200;-92
2021/03/06 03:48:18;;;;;;;15.63;9.30;;;-4.30;99.90;;;;;;4963810;28;20190;-92
2021/03/06 03:50:46;;;;;;;11.55;9.70;;;-4.30;99.90;;;;;;4958196;29;20200;-92
2021/03/06 03:53:13;;;;;;;11.27;9.98;;;-4.30;99.90;;;;;;4950541;29;20244;-93
2021/03/06 03:55:40;;;;;;;11.55;9.50;;;-4.30;99.90;;;;;;4949946;29;20652;-93
2021/03/06 03:58:09;;;;;;;12.60;10.35;;;-4.30;99.90;;;;;;4947408;29;20192;-93
2021/03/06 04:00:36;;;;;;;13.52;8.80;;;-4.40;99.90;;;;;;4948204;29;20672;-93
2021/03/06 04:03:05;;;;;;;13.80;9.63;;;-4.40;99.90;;;;;;4931033;29;20192;-92
2021/03/06 04:05:32;;;;;;;10.90;9.75;;;-4.40;99.90;;;;;;4948197;29;20192;-94
2021/03/06 04:07:59;;;;;;;10.30;9.10;;;-4.40;99.90;;;;;;4947935;29;20668;-93
2021/03/06 04:10:27;;;;;;;12.23;10.23;;;-4.30;99.90;;;;;;4946032;29;20216;-91
2021/03/06 04:12:55;;;;;;;12.20;10.27;;;-4.30;99.90;;;;;;4946137;29;20311;-94
2021/03/06 04:15:23;;;;;;;10.93;9.07;;;-4.30;99.90;;;;;;4945433;29;20254;-92
2021/03/06 04:17:51;;;;;;;13.73;9.40;;;-4.20;99.90;;;;;;4945100;29;20584;-93
2021/03/06 04:20:21;;;;;;;12.25;9.45;;;-4.20;99.90;;;;;;4944573;29;20196;-92
2021/03/06 04:22:48;;;;;;;13.10;9.70;;;-4.20;99.90;;;;;;4944700;29;20212;-92
2021/03/06 04:25:15;;;;;;;15.85;9.60;;;-4.30;99.90;;;;;;4950820;29;20203;-91
2021/03/06 04:27:42;;;;;;;12.60;10.20;;;-4.20;99.90;;;;;;4958414;28;20203;-93
2021/03/06 04:30:11;;;;;;;10.93;8.55;;;-4.20;99.90;;;;;;4944438;29;20228;-92
2021/03/06 04:32:39;;;;;;;11.73;8.65;;;-4.20;99.90;;;;;;4944246;29;20192;-92
2021/03/06 04:35:08;;;;;;;9.82;8.93;;;-4.20;99.90;;;;;;4945056;29;20596;-93
2021/03/06 04:37:36;;;;;;;12.32;7.75;;;-4.20;99.90;;;;;;4945456;29;20189;-93
2021/03/06 04:40:03;;;;;;;9.95;8.40;;;-4.20;99.90;;;;;;4944144;29;20312;-94
2021/03/06 04:42:30;;;;;;;10.13;8.60;;;-4.30;99.90;;;;;;4943979;29;20219;-93
2021/03/06 04:44:56;;;;;;;10.18;8.32;;;-4.30;99.90;;;;;;4928042;29;20196;-92
2021/03/06 04:47:23;;;;;;;11.68;8.98;;;-4.30;99.90;;;;;;4945752;29;20204;-92
2021/03/06 04:49:51;;;;;;;9.48;8.23;;;-4.30;99.90;;;;;;4947304;29;20192;-92
2021/03/06 04:52:17;;;;;;;8.00;7.30;;;-4.30;99.90;;;;;;4946619;29;20208;-93
2021/03/06 04:54:45;;;;;;;13.05;8.25;;;-4.30;99.90;;;;;;4947643;29;20216;-93
2021/03/06 04:57:13;;;;;;;9.30;8.15;;;-4.40;99.90;;;;;;4947648;29;20184;-93
2021/03/06 04:59:39;;;;;;;10.00;8.07;;;-4.40;99.90;;;;;;4965328;29;20348;-93
2021/03/06 05:02:08;;;;;;;11.30;8.55;;;-4.50;99.90;;;;;;4940250;29;20192;-92
2021/03/06 05:04:36;;;;;;;8.23;7.43;;;-4.50;99.90;;;;;;4951527;29;20188;-92
2021/03/06 05:07:04;;;;;;;10.48;9.30;;;-4.50;99.90;;;;;;4951470;29;20188;-93
2021/03/06 05:09:31;;;;;;;10.13;9.00;;;-4.60;99.90;;;;;;4934546;29;20219;-92
2021/03/06 05:12:02;;;;;;;9.65;8.32;;;-4.60;99.90;;;;;;4933570;29;20200;-93
2021/03/06 05:14:29;;;;;;;12.13;7.78;;;-4.60;99.90;;;;;;4950304;29;20216;-92
2021/03/06 05:16:56;;;;;;;9.43;8.50;;;-4.60;99.90;;;;;;4951003;29;20203;-93
2021/03/06 05:19:22;;;;;;;8.27;7.03;;;-4.60;99.90;;;;;;4951355;29;20269;-93
2021/03/06 05:21:49;;;;;;;8.27;7.47;;;-4.60;99.90;;;;;;4950832;29;20260;-93
2021/03/06 05:24:17;;;;;;;7.95;7.15;;;-4.60;99.90;;;;;;4951379;29;20199;-94
2021/03/06 05:26:43;;;;;;;9.63;7.30;;;-4.70;99.90;;;;;;4950770;29;20196;-92
2021/03/06 05:29:14;;;;;;;9.18;6.93;;;-4.70;99.90;;;;;;4952382;29;20203;-92
2021/03/06 05:31:40;;;;;;;8.63;7.35;;;-4.70;99.90;;;;;;4951005;29;20203;-92
2021/03/06 05:34:08;;;;;;;8.93;8.00;;;-4.70;99.90;;;;;;4951297;29;20236;-93
2021/03/06 05:36:36;;;;;;;8.35;7.53;;;-4.60;99.90;;;;;;4952312;29;20259;-92
2021/03/06 05:39:03;;;;;;;9.38;7.70;;;-4.60;99.90;;;;;;4959811;29;20180;-92
2021/03/06 05:41:30;;;;;;;9.40;6.93;;;-4.60;99.90;;;;;;4959496;29;20196;-93
2021/03/06 05:43:58;;;;;;;12.57;7.75;;;-4.60;99.90;;;;;;4958131;28;20168;-92
2021/03/06 05:46:26;;;;;;;8.60;6.95;;;-4.60;99.90;;;;;;4960653;29;20196;-93
2021/03/06 05:48:54;;;;;;;8.90;6.82;;;-4.60;99.90;;;;;;4928348;29;20180;-92
2021/03/06 05:51:23;;;;;;;9.98;8.10;;;-4.60;99.90;;;;;;4960663;28;20200;-92
2021/03/06 05:53:54;;;;;;;9.35;7.57;;;-4.70;99.90;;;;;;4959972;29;20212;-92
2021/03/06 05:56:24;;;;;;;10.02;7.95;;;-4.70;99.90;;;;;;4975008;29;20187;-93
2021/03/06 05:58:51;;;;;;;9.65;8.38;;;-4.80;99.90;;;;;;4958661;28;20555;-92
2021/03/06 06:01:21;;;;;;;8.00;7.20;;;-4.70;99.90;;;;;;4946816;29;20185;-93
2021/03/06 06:04:07;;;;;;;10.15;8.45;;;-4.70;99.90;;;;;;4943396;29;20192;-92
2021/03/06 06:10:26;;;;;;;8.30;7.38;;;-4.60;99.90;;;;;;4919502;29;20177;-91
2021/03/06 06:12:53;;;;;;;9.68;7.60;;;-4.60;99.90;;;;;;4953374;29;20243;-91
2021/03/06 06:15:20;;;;;;;22.30;14.65;;;-4.70;99.90;;;;;;4953518;29;20242;-89
2021/03/06 06:17:59;;;;;;;14.40;11.45;;;-4.70;99.90;;;;;;4955225;29;20208;-91
2021/03/06 06:20:30;;;;;;;10.20;8.23;;;-4.70;99.90;;;;;;4960690;28;20184;-91
2021/03/06 06:23:18;;;;;;;10.50;8.30;;;-4.70;99.90;;;;;;4944822;29;20188;-92
2021/03/06 06:25:48;;;;;;;9.60;8.45;;;-4.60;99.90;;;;;;4952895;29;20278;-93
2021/03/06 06:28:23;;;;;;;9.38;8.18;;;-4.60;99.90;;;;;;4949708;29;20588;-91
2021/03/06 06:36:49;;;;;;;14.68;11.85;;;-4.50;99.90;;;;;;4952256;29;20230;-91
2021/03/06 06:39:29;;;;;;;11.10;10.00;;;-4.40;99.90;;;;;;4960316;28;20220;-91
2021/03/06 06:41:59;;;;;;;14.30;10.50;;;-4.40;99.90;;;;;;4961180;28;20182;-93
2021/03/06 06:47:18;;;;;;;11.18;9.20;;;-4.30;99.90;;;;;;4949887;29;20200;-93
2021/03/06 06:49:55;;;;;;;10.88;9.20;;;-4.20;99.90;;;;;;4929736;29;20195;-93
2021/03/06 06:59:13;;;;;;;11.35;10.13;;;-4.00;99.90;;;;;;4950557;29;20192;-94
2021/03/06 07:04:27;;;;;;;12.98;10.00;;;-3.70;99.90;;;;;;4955149;29;20255;-91
2021/03/06 07:07:06;;;;;;;10.63;9.55;;;-3.50;99.90;;;;;;4941650;29;20180;-93
2021/03/06 07:17:56;;;;;;;12.57;11.38;;;-3.10;99.90;;;;;;4939710;29;20271;-93
2021/03/06 07:20:36;;;;;;;13.15;10.45;;;-2.90;99.90;;;;;;4949332;29;20220;-91
2021/03/06 07:23:19;;;;;;;11.95;10.57;;;-2.80;99.90;;;;;;4949681;29;20204;-93
2021/03/06 07:25:50;;;;;;;14.57;10.07;;;-2.70;99.90;;;;;;4950885;29;20188;-92
2021/03/06 07:28:22;;;;;;;11.75;10.40;;;-2.70;99.90;;;;;;4948931;29;20220;-92
2021/03/06 07:31:18;;;;;;;13.27;11.88;;;-2.60;99.90;;;;;;4949972;29;20207;-92
2021/03/06 07:33:48;;;;;;;15.20;9.70;;;-2.40;99.90;;;;;;4924162;29;20217;-92
2021/03/06 07:36:16;;;;;;;10.45;9.15;;;-2.40;99.90;;;;;;4942683;29;20188;-92
2021/03/06 07:38:51;;;;;;;10.48;9.43;;;-2.30;99.90;;;;;;4955883;28;20179;-91
2021/03/06 07:41:30;;;;;;;18.15;10.63;;;-2.20;99.90;;;;;;4944015;29;20199;-91
2021/03/06 07:44:02;;;;;;;10.10;9.10;;;-2.10;99.90;;;;;;4953182;29;20255;-92
2021/03/06 07:46:30;;;;;;;17.30;8.23;;;-2.00;99.90;;;;;;4947971;29;20649;-91
2021/03/06 07:49:27;;;;;;;11.68;8.80;;;-1.90;99.90;;;;;;4952275;29;20548;-91
2021/03/06 07:52:06;;;;;;;11.45;8.27;;;-1.80;99.90;;;;;;4953733;29;20262;-91
2021/03/06 07:54:43;;;;;;;10.65;7.05;;;-1.70;99.90;;;;;;4953023;29;20212;-91
2021/03/06 07:57:10;;;;;;;8.07;7.03;;;-1.40;99.90;;;;;;4953990;29;20260;-91
2021/03/06 07:59:55;;;;;;;9.93;8.93;;;-1.30;99.90;;;;;;4956547;28;20172;-91
2021/03/06 08:02:35;;;;;;;8.57;6.88;;;-1.20;99.90;;;;;;4960087;28;20180;-90
2021/03/06 08:05:03;;;;;;;12.70;8.98;;;-1.10;99.90;;;;;;4942927;29;20208;-90
2021/03/06 08:07:42;;;;;;;11.23;9.50;;;-1.00;99.90;;;;;;4957878;29;20206;-90
2021/03/06 08:10:10;;;;;;;11.95;8.35;;;-0.80;99.90;;;;;;4955569;29;20199;-91
2021/03/06 08:12:38;;;;;;;10.05;7.47;;;-0.60;99.90;;;;;;4945931;29;20188;-92
2021/03/06 08:15:31;;;;;;;8.02;6.78;;;-0.40;99.90;;;;;;4944367;29;20247;-91
2021/03/06 08:17:58;;;;;;;10.93;6.75;;;-0.30;99.90;;;;;;4944526;29;20689;-91
2021/03/06 08:20:31;;;;;;;10.52;6.78;;;-0.10;99.90;;;;;;4945197;29;20227;-92
2021/03/06 08:23:17;;;;;;;9.63;7.10;;;0.10;99.90;;;;;;4951646;29;20188;-92
2021/03/06 08:25:44;;;;;;;10.75;7.22;;;0.30;99.90;;;;;;4967606;28;20196;-90
2021/03/06 08:28:23;;;;;;;10.00;7.15;;;0.40;99.90;;;;;;4956982;28;20612;-91
2021/03/06 08:30:49;;;;;;;10.07;6.85;;;0.50;99.90;;;;;;4945612;29;20191;-90
2021/03/06 08:33:17;;;;;;;12.93;8.23;;;0.70;99.90;;;;;;4948840;29;20224;-91
2021/03/06 08:35:45;;;;;;;9.30;7.97;;;0.80;99.90;;;;;;4948087;29;20191;-90
2021/03/06 08:38:29;;;;;;;7.25;6.55;;;1.00;99.90;;;;;;4948513;29;20204;-91
2021/03/06 08:40:57;;;;;;;8.70;6.95;;;1.20;99.90;;;;;;4949152;29;20188;-91
2021/03/06 08:43:24;;;;;;;10.07;6.60;;;1.30;99.90;;;;;;4947776;29;20570;-92
2021/03/06 08:45:50;;;;;;;12.40;8.38;;;1.40;99.90;;;;;;4948910;29;20210;-92
2021/03/06 08:48:32;;;;;;;9.95;6.32;;;1.50;99.90;;;;;;4957815;28;20272;-90
2021/03/06 08:51:01;;;;;;;9.38;5.88;;;1.70;99.90;;;;;;4957470;29;20220;-91
2021/03/06 08:53:28;;;;;;;10.00;6.85;;;1.80;99.90;;;;;;4952854;28;20257;-91
2021/03/06 09:03:48;;;;;;;10.48;7.22;;;2.20;99.90;;;;;;5093325;23;20223;-91
2021/03/06 09:06:16;;;;;;;10.93;6.75;;;2.30;99.90;;;;;;4949699;29;20222;-91
2021/03/06 09:08:52;;;;;;;8.27;5.78;;;2.40;99.90;;;;;;4959921;28;20355;-93
2021/03/06 09:11:19;;;;;;;8.30;6.38;;;2.50;99.90;;;;;;4934827;29;20208;-91
2021/03/06 09:13:47;;;;;;;12.77;6.22;;;2.60;99.90;;;;;;4950051;29;20734;-92
2021/03/06 09:16:13;;;;;;;7.72;4.93;;;2.70;99.90;;;;;;4954594;29;20210;-90
2021/03/06 09:18:40;;;;;;;8.35;6.25;;;2.80;99.90;;;;;;4952117;28;20238;-92
2021/03/06 09:21:11;;;;;;;17.80;8.23;;;2.90;99.90;;;;;;4953970;29;20224;-92
2021/03/06 09:23:41;;;;;;;9.70;7.00;;;3.00;99.90;;;;;;4969206;28;20196;-90
2021/03/06 09:26:12;;;;;;;13.02;6.63;;;3.10;99.90;;;;;;4992975;28;20208;-90
2021/03/06 09:28:39;;;;;;;11.63;6.35;;;3.20;99.90;;;;;;4972282;28;20196;-90
2021/03/06 09:31:13;;;;;;;9.25;5.40;;;3.30;99.90;;;;;;4949132;29;20221;-89
2021/03/06 09:33:40;;;;;;;10.85;5.50;;;3.40;99.90;;;;;;4940133;29;20221;-90
2021/03/06 09:36:11;;;;;;;6.18;4.45;;;3.50;99.90;;;;;;4950817;29;20206;-92
2021/03/06 09:38:48;;;;;;;9.90;5.13;;;3.70;99.90;;;;;;4957229;28;20197;-91
2021/03/06 09:41:17;;;;;;;5.78;5.15;;;3.80;99.90;;;;;;4964746;28;20195;-91
2021/03/06 09:43:49;;;;;;;17.00;3.78;;;3.90;99.90;;;;;;4947489;29;20190;-90
2021/03/06 09:46:19;;;;;;;4.75;3.40;;;4.00;99.90;;;;;;4962579;28;20300;-87
2021/03/06 09:48:51;;;;;;;5.07;2.55;;;4.10;99.90;;;;;;4984739;28;20197;-90
2021/03/06 09:51:18;;;;;;;8.55;3.20;;;4.30;99.90;;;;;;4980807;28;20204;-91
2021/03/06 09:53:55;;;;;;;10.40;4.65;;;4.40;99.90;;;;;;4966298;28;20282;-91
2021/03/06 09:56:22;;;;;;;5.05;3.05;;;4.50;99.90;;;;;;4962487;29;20289;-90
2021/03/06 09:58:59;;;;;;;6.32;3.33;;;4.60;99.90;;;;;;4954509;29;20271;-92
2021/03/06 10:01:27;;;;;;;7.30;3.42;;;4.70;99.90;;;;;;4964836;29;20198;-90
2021/03/06 10:03:55;;;;;;;13.38;3.88;;;4.80;99.90;;;;;;4963939;28;20222;-91
2021/03/06 10:06:23;;;;;;;9.50;4.45;;;4.90;99.90;;;;;;4965257;28;20198;-91
2021/03/06 10:08:54;;;;;;;6.45;3.70;;;5.00;99.90;;;;;;4971826;28;20217;-91
2021/03/06 10:11:27;;;;;;;17.15;4.03;;;5.20;99.90;;;;;;4975320;28;20269;-91
2021/03/06 10:13:55;;;;;;;6.20;4.20;;;5.30;99.90;;;;;;4965260;29;20223;-90
2021/03/06 10:16:22;;;;;;;7.05;4.18;;;5.50;99.90;;;;;;4966177;28;20199;-89
2021/03/06 10:18:49;;;;;;;9.05;4.05;;;5.50;99.90;;;;;;4966264;28;20218;-91
2021/03/06 10:21:19;;;;;;;10.95;3.88;;;5.60;99.90;;;;;;4967339;28;20542;-91
2021/03/06 10:23:46;;;;;;;5.90;4.30;;;5.70;99.90;;;;;;4967677;28;20192;-89
2021/03/06 10:26:24;;;;;;;12.90;6.18;;;5.70;99.90;;;;;;4966082;28;20222;-92
2021/03/06 10:28:54;;;;;;;15.43;4.60;;;5.70;99.90;;;;;;4958984;29;20215;-90
2021/03/06 10:31:45;;;;;;;4.10;3.00;;;5.90;99.90;;;;;;4968046;28;20183;-88
2021/03/06 10:34:22;;;;;;;6.07;4.40;;;6.00;99.90;;;;;;4970034;28;20211;-89
2021/03/06 10:37:13;;;;;;;5.20;4.05;;;6.20;99.90;;;;;;4964523;29;20846;-88
2021/03/06 10:39:58;;;;;;;8.57;4.22;;;6.50;99.90;;;;;;4963635;29;20238;-90
2021/03/06 10:42:40;;;;;;;5.40;2.85;;;6.60;99.90;;;;;;4945502;29;20227;-89
2021/03/06 10:45:12;;;;;;;5.68;3.42;;;6.70;99.90;;;;;;4948981;29;20199;-88
2021/03/06 10:47:48;;;;;;;5.68;2.70;;;6.80;99.90;;;;;;4968255;28;20628;-88
2021/03/06 10:50:24;;;;;;;6.03;3.35;;;6.80;99.90;;;;;;4946020;29;20253;-89
2021/03/06 10:52:53;;;;;;;7.00;2.92;;;6.90;99.90;;;;;;4945654;29;20195;-89
2021/03/06 10:55:33;;;;;;;6.32;3.75;;;7.10;99.90;;;;;;4937935;29;20219;-88
2021/03/06 10:58:01;;;;;;;8.00;2.63;;;7.40;99.90;;;;;;4952413;29;20191;-89
2021/03/06 11:00:27;;;;;;;7.78;3.53;;;7.50;99.90;;;;;;4957837;29;20544;-89
2021/03/06 11:02:57;;;;;;;11.73;3.03;;;7.70;99.90;;;;;;4960598;29;20255;-89
2021/03/06 11:05:26;;;;;;;4.57;3.10;;;7.90;99.90;;;;;;4964021;28;20284;-90
2021/03/06 11:07:57;;;;;;;4.88;2.90;;;7.90;99.90;;;;;;4964414;29;20226;-91
2021/03/06 11:10:27;;;;;;;8.90;2.70;;;8.00;99.90;;;;;;4963983;29;20265;-90
2021/03/06 11:12:58;;;;;;;8.05;4.32;;;7.90;99.90;;;;;;4964972;28;20176;-90
2021/03/06 11:15:29;;;;;;;7.53;3.05;;;7.80;99.90;;;;;;4963738;29;20207;-90
2021/03/06 11:17:58;;;;;;;4.78;3.03;;;8.00;99.90;;;;;;4977609;28;20194;-91
2021/03/06 11:20:28;;;;;;;5.22;3.17;;;8.20;99.90;;;;;;4955383;29;20227;-91
2021/03/06 11:22:57;;;;;;;4.28;2.72;;;8.20;99.90;;;;;;4970960;28;20219;-91
2021/03/06 11:25:25;;;;;;;5.25;3.58;;;8.10;99.90;;;;;;4970107;28;20207;-90
2021/03/06 11:28:01;;;;;;;11.52;3.80;;;8.00;99.90;;;;;;4955950;28;20215;-91
2021/03/06 11:30:32;;;;;;;5.32;3.50;;;7.80;99.90;;;;;;4979450;28;20179;-91
2021/03/06 11:33:00;;;;;;;5.63;3.20;;;7.90;99.90;;;;;;4968234;28;20191;-90
2021/03/06 11:35:27;;;;;;;9.63;3.85;;;8.10;99.90;;;;;;4973629;28;20230;-90
2021/03/06 11:37:54;;;;;;;10.45;3.85;;;8.30;99.90;;;;;;4958982;28;20286;-90
2021/03/06 11:40:22;;;;;;;4.22;2.72;;;8.40;99.90;;;;;;4960095;28;20195;-91
2021/03/06 11:42:50;;;;;;;7.47;4.10;;;8.40;99.90;;;;;;4962584;28;20199;-90
2021/03/06 11:45:19;;;;;;;9.25;5.30;;;8.50;99.90;;;;;;4974624;28;20207;-91
2021/03/06 11:47:47;;;;;;;8.82;4.00;;;8.70;99.90;;;;;;4977644;28;20231;-91
2021/03/06 11:50:15;;;;;;;7.90;4.30;;;8.90;99.90;;;;;;4964379;28;20203;-91
2021/03/06 11:55:24;;;;;;;8.98;3.20;;;9.90;99.90;;;;;;4962930;28;20289;-91
2021/03/06 11:57:50;;;;;;;6.10;4.10;;;10.50;99.90;;;;;;4970445;28;20168;-90
2021/03/06 12:00:20;;;;;;;7.78;3.00;;;11.30;99.90;;;;;;4977018;28;20627;-90
2021/03/06 12:02:48;;;;;;;5.28;3.40;;;11.80;99.90;;;;;;4978806;28;20227;-90
2021/03/06 12:05:14;;;;;;;13.55;5.25;;;11.60;99.90;;;;;;4965160;28;20227;-91
2021/03/06 12:08:09;;;;;;;4.90;3.78;;;11.70;99.90;;;;;;4967483;28;20255;-91
2021/03/06 12:10:35;;;;;;;7.60;5.43;;;12.30;99.90;;;;;;4963051;29;20195;-90
2021/03/06 12:13:02;;;;;;;4.20;3.80;;;12.40;99.90;;;;;;4963711;28;20199;-90
2021/03/06 12:15:29;;;;;;;5.65;4.00;;;12.70;99.90;;;;;;4962817;28;20230;-92
2021/03/06 12:17:56;;;;;;;5.38;3.47;;;13.20;99.90;;;;;;4964701;28;20190;-89
2021/03/06 12:20:24;;;;;;;5.05;3.10;;;13.10;99.90;;;;;;4944204;28;20606;-90
2021/03/06 12:22:51;;;;;;;4.75;3.03;;;13.50;99.90;;;;;;4961427;28;20631;-90
2021/03/06 12:25:17;;;;;;;4.70;3.35;;;14.10;99.90;;;;;;4962310;29;20194;-89
2021/03/06 12:27:44;;;;;;;9.00;3.78;;;14.10;99.90;;;;;;4963445;29;20202;-90
2021/03/06 12:30:15;;;;;;;7.07;4.40;;;14.10;99.90;;;;;;4963911;28;20198;-90
2021/03/06 12:32:43;;;;;;;5.80;3.80;;;14.30;99.90;;;;;;4946522;29;20228;-90
2021/03/06 12:35:12;;;;;;;5.47;3.65;;;14.70;99.90;;;;;;4946091;29;20246;-90
2021/03/06 12:37:39;;;;;;;8.90;5.43;;;15.10;99.90;;;;;;4945760;29;20663;-91
2021/03/06 12:40:07;;;;;;;9.45;4.72;;;15.70;99.90;;;;;;4962641;28;20214;-92
2021/03/06 12:42:34;;;;;;;9.82;5.32;;;15.70;99.90;;;;;;4966886;28;20199;-90
2021/03/06 12:45:00;;;;;;;7.95;4.47;;;15.20;99.90;;;;;;4963700;29;20206;-90
2021/03/06 12:47:26;;;;;;;9.30;5.57;;;15.50;99.90;;;;;;4961113;28;20257;-90
2021/03/06 12:49:53;;;;;;;5.25;4.70;;;15.30;99.90;;;;;;4960475;29;20203;-91
2021/03/06 12:52:21;;;;;;;7.57;5.55;;;15.30;99.90;;;;;;4964355;29;20199;-90
2021/03/06 12:54:48;;;;;;;8.80;5.07;;;15.20;99.90;;;;;;4961173;29;20226;-90
2021/03/06 12:57:16;;;;;;;5.43;4.45;;;15.10;99.90;;;;;;4961831;29;20195;-90
2021/03/06 12:59:42;;;;;;;9.05;5.15;;;15.30;99.90;;;;;;4944429;29;20605;-91
2021/03/06 13:02:08;;;;;;;5.63;4.53;;;15.00;99.90;;;;;;4961791;28;20253;-91
2021/03/06 13:04:35;;;;;;;6.10;4.65;;;14.80;99.90;;;;;;4961787;29;20203;-91
2021/03/06 13:07:01;;;;;;;7.68;4.25;;;15.00;99.40;;;;;;4962828;28;20202;-90
2021/03/06 13:09:29;;;;;;;4.50;3.85;;;15.20;99.20;;;;;;4962938;28;20190;-91
2021/03/06 13:11:55;;;;;;;4.55;3.67;;;15.50;99.80;;;;;;4975672;28;20196;-90
2021/03/06 13:14:22;;;;;;;6.70;3.65;;;16.00;97.90;;;;;;4980708;28;20230;-92
2021/03/06 13:16:48;;;;;;;5.20;3.45;;;16.40;98.70;;;;;;4962220;28;20191;-91
2021/03/06 13:19:15;;;;;;;6.22;4.05;;;16.60;97.30;;;;;;4982122;28;20254;-91
2021/03/06 13:21:41;;;;;;;5.32;3.80;;;16.80;95.80;;;;;;4973610;28;20186;-91
2021/03/06 13:24:09;;;;;;;5.35;3.90;;;16.60;96.00;;;;;;4967739;29;20207;-92
2021/03/06 13:26:36;;;;;;;6.95;4.28;;;16.70;95.80;;;;;;4971580;28;20197;-91
2021/03/06 13:29:03;;;;;;;4.75;3.83;;;16.40;94.40;;;;;;4990730;28;20186;-91
2021/03/06 13:31:30;;;;;;;5.65;4.13;;;16.10;95.20;;;;;;4973569;28;20215;-91
2021/03/06 13:33:56;;;;;;;7.10;3.53;;;15.90;94.20;;;;;;4991908;28;20221;-91
2021/03/06 13:36:22;;;;;;;7.05;4.40;;;16.10;94.60;;;;;;4995568;28;20197;-90